Time;durP1;ratioP1;P1;durP2;ratioP2;P2;SDS_P1;SDS_P2;PMS_P1;PMS_P2;Temp;Humidity;BMP_temperature;BMP_pressure;BME280_temperature;BME280_humidity;BME280_pressure;Samples;Min_cycle;Max_cycle;Signal;HPM_P1;HPM_P2
2022/01/17 00:00:19;;;;;;;2.40;1.10;;;22.20;32.10;;;;;;5052382;28;20047;-48
2022/01/17 00:02:47;;;;;;;2.10;1.17;;;22.10;32.00;;;;;;5052743;28;20020;-49
2022/01/17 00:05:13;;;;;;;2.10;0.98;;;22.10;32.00;;;;;;5052999;28;20041;-49
2022/01/17 00:07:39;;;;;;;2.03;1.08;;;22.10;32.00;;;;;;5052826;28;20059;-48
2022/01/17 00:10:06;;;;;;;2.88;1.23;;;22.10;32.00;;;;;;5052678;28;20118;-48
2022/01/17 00:12:35;;;;;;;2.58;0.98;;;22.10;31.90;;;;;;5052633;28;20021;-50
2022/01/17 00:15:01;;;;;;;2.47;1.00;;;22.10;31.90;;;;;;5052429;28;20025;-50
2022/01/17 00:17:35;;;;;;;2.13;0.85;;;22.10;31.90;;;;;;5052627;28;20025;-49
2022/01/17 00:20:10;;;;;;;1.67;0.90;;;22.10;31.90;;;;;;5052973;28;20086;-46
2022/01/17 00:22:38;;;;;;;3.30;1.35;;;22.10;31.90;;;;;;5052617;28;20040;-50
2022/01/17 00:25:07;;;;;;;1.90;0.95;;;22.10;31.90;;;;;;5052899;28;20036;-47
2022/01/17 00:27:33;;;;;;;2.50;1.10;;;22.10;31.90;;;;;;5052723;28;20039;-47
2022/01/17 00:30:02;;;;;;;2.42;1.05;;;22.00;31.90;;;;;;5052735;28;20037;-47
2022/01/17 00:32:28;;;;;;;1.75;1.00;;;22.00;31.90;;;;;;5052633;28;20082;-48
2022/01/17 00:34:54;;;;;;;1.88;1.10;;;22.00;32.00;;;;;;5052923;28;20033;-49
2022/01/17 00:37:20;;;;;;;2.33;1.15;;;22.00;32.00;;;;;;5052430;28;20056;-52
2022/01/17 00:39:45;;;;;;;3.33;1.23;;;22.00;32.00;;;;;;5053092;28;20645;-52
2022/01/17 00:42:11;;;;;;;2.03;0.93;;;22.00;32.00;;;;;;5052623;28;20043;-50
2022/01/17 00:44:37;;;;;;;2.00;0.95;;;22.00;32.00;;;;;;5052849;28;20021;-46
2022/01/17 00:47:03;;;;;;;2.28;1.02;;;22.00;32.00;;;;;;5052290;28;20386;-49
2022/01/17 00:49:29;;;;;;;2.47;0.90;;;22.00;32.00;;;;;;5052677;28;20047;-50
2022/01/17 00:51:55;;;;;;;2.60;1.00;;;22.00;32.00;;;;;;5052665;28;20021;-51
2022/01/17 00:54:20;;;;;;;3.47;1.20;;;22.00;32.00;;;;;;5052836;28;20057;-49
2022/01/17 00:56:46;;;;;;;2.17;1.23;;;22.00;32.00;;;;;;5052238;28;20439;-51
2022/01/17 00:59:12;;;;;;;2.05;1.00;;;22.00;32.00;;;;;;5052891;28;20112;-50
2022/01/17 01:01:38;;;;;;;1.90;1.10;;;22.00;32.00;;;;;;5056143;28;20433;-54
2022/01/17 01:04:04;;;;;;;1.58;0.88;;;22.00;32.10;;;;;;5055814;28;20024;-53
2022/01/17 01:06:30;;;;;;;1.83;1.13;;;21.90;32.00;;;;;;5055986;28;20032;-53
2022/01/17 01:08:57;;;;;;;3.38;1.13;;;22.00;32.10;;;;;;5055852;28;20041;-50
2022/01/17 01:11:23;;;;;;;2.72;0.98;;;22.00;32.10;;;;;;5055716;28;20135;-52
2022/01/17 01:13:49;;;;;;;2.65;1.20;;;21.90;32.10;;;;;;5055492;28;20028;-48
2022/01/17 01:19:43;;;;;;;2.33;0.93;;;21.90;32.20;;;;;;5055741;28;20043;-54
2022/01/17 01:22:10;;;;;;;1.58;0.93;;;21.90;32.20;;;;;;5038290;28;20452;-52
2022/01/17 01:30:07;;;;;;;3.15;1.17;;;21.90;32.30;;;;;;5055079;28;20091;-53
2022/01/17 01:32:40;;;;;;;2.17;0.95;;;21.90;32.30;;;;;;5055321;28;20863;-50
2022/01/17 01:35:10;;;;;;;2.50;1.20;;;21.90;32.30;;;;;;5053507;28;20035;-50
2022/01/17 01:37:37;;;;;;;2.53;1.27;;;21.80;32.30;;;;;;5055862;28;20320;-52
2022/01/17 01:40:05;;;;;;;1.73;0.90;;;21.80;32.20;;;;;;5055102;28;20017;-53
2022/01/17 01:42:33;;;;;;;4.05;1.52;;;21.90;32.30;;;;;;5054963;28;20115;-50
2022/01/17 01:44:59;;;;;;;3.55;1.15;;;21.80;32.20;;;;;;5054834;28;21502;-52
2022/01/17 01:47:27;;;;;;;2.58;1.10;;;21.80;32.20;;;;;;5053947;28;20124;-50
2022/01/17 01:49:53;;;;;;;2.00;0.80;;;21.90;32.30;;;;;;5055045;28;20132;-48
2022/01/17 01:52:20;;;;;;;3.80;1.27;;;21.80;32.20;;;;;;5053927;28;20067;-52
2022/01/17 01:54:46;;;;;;;2.58;0.98;;;21.80;32.20;;;;;;5054851;28;20013;-51
2022/01/17 01:57:12;;;;;;;4.00;1.35;;;21.80;32.10;;;;;;5053931;28;20443;-53
2022/01/17 01:59:38;;;;;;;1.58;0.90;;;21.80;32.10;;;;;;5054737;28;20036;-52
2022/01/17 02:02:05;;;;;;;1.88;0.75;;;21.80;32.00;;;;;;5055194;28;20427;-52
2022/01/17 02:04:31;;;;;;;2.25;0.80;;;21.80;32.00;;;;;;5055108;28;20032;-52
2022/01/17 02:06:58;;;;;;;1.95;0.80;;;21.80;32.00;;;;;;5055316;28;20025;-53
2022/01/17 02:09:24;;;;;;;1.95;0.90;;;21.80;31.90;;;;;;5054364;28;20348;-49
2022/01/17 02:11:51;;;;;;;2.05;0.98;;;21.80;31.90;;;;;;5035942;28;20440;-45
2022/01/17 02:14:17;;;;;;;2.75;0.90;;;21.80;31.80;;;;;;5054029;28;20296;-45
2022/01/17 02:16:44;;;;;;;1.60;0.68;;;21.80;31.80;;;;;;5054828;28;20140;-51
2022/01/17 02:19:12;;;;;;;3.15;1.00;;;21.70;31.70;;;;;;5054028;28;20028;-44
2022/01/17 02:21:47;;;;;;;1.63;0.98;;;21.70;31.70;;;;;;5054958;28;20106;-48
2022/01/17 02:24:18;;;;;;;2.22;0.73;;;21.70;31.70;;;;;;5054148;28;20106;-48
2022/01/17 02:26:45;;;;;;;3.85;1.17;;;21.70;31.70;;;;;;5052288;28;20024;-50
2022/01/17 02:29:11;;;;;;;3.72;0.90;;;21.80;31.70;;;;;;5053868;28;20098;-49
2022/01/17 02:31:37;;;;;;;2.22;0.98;;;21.70;31.60;;;;;;5054793;28;20036;-49
2022/01/17 02:34:03;;;;;;;2.40;0.90;;;21.70;31.60;;;;;;5054170;28;20332;-45
2022/01/17 02:36:30;;;;;;;1.75;0.88;;;21.70;31.60;;;;;;5054670;28;20025;-46
2022/01/17 02:38:56;;;;;;;2.65;0.93;;;21.70;31.50;;;;;;5054004;28;20105;-52
2022/01/17 02:41:22;;;;;;;1.75;0.88;;;21.70;31.50;;;;;;5036350;28;20736;-47
2022/01/17 02:43:48;;;;;;;1.77;0.68;;;21.70;31.50;;;;;;5053912;28;20021;-48
2022/01/17 02:48:41;;;;;;;2.33;1.05;;;21.70;31.40;;;;;;5044834;28;20314;-47
2022/01/17 02:51:08;;;;;;;2.25;0.75;;;21.70;31.40;;;;;;5036453;28;20116;-47
2022/01/17 02:53:34;;;;;;;1.73;0.73;;;21.70;31.40;;;;;;5037942;28;20113;-48
2022/01/17 02:56:04;;;;;;;2.13;0.70;;;21.70;31.30;;;;;;5039988;28;20116;-47
2022/01/17 02:58:34;;;;;;;3.55;1.10;;;21.70;31.30;;;;;;5044989;28;20104;-47
2022/01/17 03:01:11;;;;;;;2.20;0.90;;;21.70;31.30;;;;;;5038197;28;20033;-50
2022/01/17 03:03:41;;;;;;;3.95;1.25;;;21.70;31.30;;;;;;5043074;28;20087;-51
2022/01/17 03:06:08;;;;;;;1.88;0.60;;;21.70;31.30;;;;;;5050853;28;20092;-49
2022/01/17 03:08:35;;;;;;;2.28;0.60;;;21.60;31.20;;;;;;5052434;28;20028;-47
2022/01/17 03:11:05;;;;;;;2.83;0.80;;;21.60;31.20;;;;;;5047154;28;20115;-47
2022/01/17 03:13:33;;;;;;;2.35;0.85;;;21.60;31.20;;;;;;5052514;28;20040;-45
2022/01/17 03:16:04;;;;;;;1.92;0.70;;;21.60;31.20;;;;;;5053137;28;20017;-50
2022/01/17 03:18:33;;;;;;;2.22;0.70;;;21.70;31.30;;;;;;5051325;28;20436;-50
2022/01/17 03:21:00;;;;;;;2.42;0.77;;;21.60;31.20;;;;;;5034672;28;20032;-51
2022/01/17 03:23:27;;;;;;;3.05;0.73;;;21.60;31.20;;;;;;5053344;28;20035;-51
2022/01/17 03:25:53;;;;;;;1.55;0.70;;;21.60;31.10;;;;;;5053416;28;20115;-52
2022/01/17 03:28:19;;;;;;;2.58;1.00;;;21.60;31.20;;;;;;5053855;28;20028;-47
2022/01/17 03:30:45;;;;;;;2.90;0.93;;;21.60;31.10;;;;;;5052752;28;20072;-47
2022/01/17 03:33:14;;;;;;;2.00;0.98;;;21.60;31.10;;;;;;5053499;28;20017;-51
2022/01/17 03:35:40;;;;;;;2.90;0.70;;;21.60;31.10;;;;;;5035024;28;20033;-47
2022/01/17 03:38:09;;;;;;;1.80;0.77;;;21.60;31.10;;;;;;5030702;28;20108;-47
2022/01/17 03:40:35;;;;;;;3.55;1.10;;;21.60;31.10;;;;;;5050439;28;20052;-51
2022/01/17 03:43:01;;;;;;;1.88;0.90;;;21.60;31.10;;;;;;5053269;28;20368;-49
2022/01/17 03:45:27;;;;;;;1.73;0.75;;;21.60;31.20;;;;;;5053107;28;20078;-46
2022/01/17 03:47:55;;;;;;;2.03;0.70;;;21.60;31.20;;;;;;5053205;28;20021;-48
2022/01/17 03:50:24;;;;;;;2.15;0.70;;;21.60;31.20;;;;;;5052696;28;20033;-48
2022/01/17 03:52:51;;;;;;;2.53;0.80;;;21.50;31.20;;;;;;5053329;28;20025;-47
2022/01/17 03:55:18;;;;;;;2.38;0.70;;;21.50;31.20;;;;;;5053095;28;20029;-49
2022/01/17 03:57:44;;;;;;;2.97;0.77;;;21.60;31.30;;;;;;5052714;28;20131;-50
2022/01/17 04:00:18;;;;;;;1.88;0.90;;;21.50;31.20;;;;;;5052913;28;20194;-45
2022/01/17 04:02:44;;;;;;;2.73;0.87;;;21.50;31.20;;;;;;5052249;28;20067;-49
2022/01/17 04:05:10;;;;;;;2.20;0.80;;;21.50;31.20;;;;;;5053040;28;20417;-46
2022/01/17 04:07:36;;;;;;;1.50;0.60;;;21.60;31.30;;;;;;5053356;28;20020;-47
2022/01/17 04:10:03;;;;;;;2.30;0.70;;;21.60;31.30;;;;;;5052577;28;20427;-51
2022/01/17 04:12:29;;;;;;;2.63;1.02;;;21.50;31.20;;;;;;5052606;28;20013;-48
2022/01/17 04:14:56;;;;;;;1.42;0.55;;;21.50;31.20;;;;;;5052129;28;20490;-48
2022/01/17 04:17:28;;;;;;;1.77;0.80;;;21.50;31.30;;;;;;5053007;28;20032;-46
2022/01/17 04:20:09;;;;;;;2.42;0.90;;;21.50;31.30;;;;;;5032885;28;20477;-45
2022/01/17 04:22:40;;;;;;;1.30;0.60;;;21.50;31.30;;;;;;5052429;28;20037;-52
2022/01/17 04:25:07;;;;;;;3.15;1.17;;;21.50;31.30;;;;;;5050269;28;20013;-48
2022/01/17 04:27:34;;;;;;;2.03;0.65;;;21.50;31.30;;;;;;5052409;28;20398;-46
2022/01/17 04:30:04;;;;;;;2.95;1.33;;;21.50;31.30;;;;;;5052382;28;20432;-47
2022/01/17 04:32:30;;;;;;;2.38;0.80;;;21.40;31.30;;;;;;5052788;28;20318;-47
2022/01/17 04:34:55;;;;;;;2.42;0.90;;;21.40;31.30;;;;;;5053715;28;20024;-47
2022/01/17 04:37:21;;;;;;;2.13;0.75;;;21.40;31.30;;;;;;5056273;28;20025;-47
2022/01/17 04:39:47;;;;;;;2.53;1.00;;;21.40;31.30;;;;;;5056238;28;20412;-46
2022/01/17 04:42:13;;;;;;;2.53;0.77;;;21.40;31.30;;;;;;5055632;28;20052;-49
2022/01/17 04:47:25;;;;;;;1.80;0.75;;;21.40;31.40;;;;;;5055940;28;20096;-48
2022/01/17 04:49:51;;;;;;;1.27;0.60;;;21.40;31.40;;;;;;5056430;28;20033;-51
2022/01/17 04:52:17;;;;;;;1.65;0.68;;;21.40;31.40;;;;;;5055980;28;20463;-49
2022/01/17 04:54:45;;;;;;;1.38;0.65;;;21.40;31.40;;;;;;5056602;28;20025;-52
2022/01/17 04:57:12;;;;;;;1.95;0.60;;;21.40;31.40;;;;;;5055428;28;20065;-46
2022/01/17 04:59:42;;;;;;;2.95;0.98;;;21.40;31.40;;;;;;5056307;28;20021;-47
2022/01/17 05:02:09;;;;;;;1.05;0.40;;;21.40;31.40;;;;;;5056321;28;20086;-50
2022/01/17 05:04:35;;;;;;;2.22;0.80;;;21.40;31.40;;;;;;5055982;28;20113;-47
2022/01/17 05:07:04;;;;;;;2.63;0.68;;;21.40;31.40;;;;;;5055560;28;20139;-50
2022/01/17 05:09:30;;;;;;;2.25;0.75;;;21.40;31.50;;;;;;5053429;28;20043;-50
2022/01/17 05:11:55;;;;;;;2.88;0.80;;;21.40;31.50;;;;;;5055914;28;20427;-49
2022/01/17 05:14:21;;;;;;;1.45;0.60;;;21.40;31.50;;;;;;5055576;28;20041;-47
2022/01/17 05:16:59;;;;;;;2.28;0.80;;;21.40;31.50;;;;;;5055485;28;20112;-47
2022/01/17 05:22:09;;;;;;;2.17;0.63;;;21.40;31.50;;;;;;5055754;28;20029;-47
2022/01/17 05:24:34;;;;;;;1.60;0.70;;;21.40;31.50;;;;;;5056161;28;20074;-49
2022/01/17 05:27:00;;;;;;;2.80;0.70;;;21.40;31.50;;;;;;5055030;28;20537;-49
2022/01/17 05:29:26;;;;;;;1.77;0.52;;;21.40;31.50;;;;;;5055042;28;20033;-50
2022/01/17 05:31:52;;;;;;;1.73;0.75;;;21.40;31.50;;;;;;5055792;28;20024;-48
2022/01/17 05:34:18;;;;;;;2.97;0.93;;;21.40;31.50;;;;;;5055573;28;20036;-48
2022/01/17 05:36:44;;;;;;;0.80;0.60;;;21.40;31.50;;;;;;5054916;28;20035;-48
2022/01/17 05:39:10;;;;;;;1.52;0.88;;;21.40;31.50;;;;;;5055500;28;20043;-47
2022/01/17 05:41:35;;;;;;;1.55;0.70;;;21.40;31.60;;;;;;5055620;28;20136;-47
2022/01/17 05:44:01;;;;;;;1.67;0.60;;;21.40;31.60;;;;;;5055535;28;20028;-52
2022/01/17 05:46:27;;;;;;;1.67;0.60;;;21.40;31.70;;;;;;5054811;28;20079;-53
2022/01/17 05:48:53;;;;;;;1.75;0.68;;;21.40;31.70;;;;;;5054886;28;20025;-49
2022/01/17 05:51:19;;;;;;;1.70;0.65;;;21.40;31.70;;;;;;5055252;28;20376;-47
2022/01/17 05:53:44;;;;;;;1.02;0.50;;;21.40;31.70;;;;;;5054082;28;20029;-50
2022/01/17 05:56:10;;;;;;;1.95;0.75;;;21.40;31.70;;;;;;5055111;28;20017;-50
2022/01/17 05:58:36;;;;;;;2.08;0.70;;;21.40;31.70;;;;;;5054014;28;20097;-50
2022/01/17 06:01:02;;;;;;;1.20;0.65;;;21.40;31.20;;;;;;5055024;28;20062;-50
2022/01/17 06:03:28;;;;;;;1.90;0.60;;;21.40;31.70;;;;;;5055088;28;20021;-45
2022/01/17 06:05:54;;;;;;;2.22;0.80;;;21.40;31.70;;;;;;5054520;28;20413;-49
2022/01/17 06:08:20;;;;;;;2.08;0.88;;;21.40;31.70;;;;;;5037135;28;20013;-47
2022/01/17 06:10:45;;;;;;;2.05;0.80;;;21.40;31.80;;;;;;5054691;28;20119;-50
2022/01/17 06:13:11;;;;;;;1.45;0.60;;;21.40;32.40;;;;;;5054446;28;20039;-48
2022/01/17 06:15:37;;;;;;;1.45;0.60;;;21.40;31.80;;;;;;5054995;28;20644;-47
2022/01/17 06:18:03;;;;;;;1.83;0.70;;;21.40;31.80;;;;;;5054689;28;20448;-48
2022/01/17 06:20:29;;;;;;;1.98;0.85;;;21.40;31.80;;;;;;5054454;28;20017;-48
2022/01/17 06:22:55;;;;;;;2.85;0.80;;;21.40;31.90;;;;;;5054699;28;20021;-49
2022/01/17 06:25:21;;;;;;;3.83;0.88;;;21.40;31.90;;;;;;5054415;28;20035;-50
2022/01/17 06:27:46;;;;;;;1.67;0.60;;;21.30;31.90;;;;;;5053982;28;20429;-48
2022/01/17 06:30:13;;;;;;;1.52;0.60;;;21.40;32.00;;;;;;5054075;28;20024;-46
2022/01/17 06:32:40;;;;;;;2.63;0.73;;;21.40;32.00;;;;;;5054542;28;20096;-47
2022/01/17 06:35:06;;;;;;;3.25;1.05;;;21.30;31.90;;;;;;5054178;28;20027;-50
2022/01/17 06:37:32;;;;;;;1.77;0.80;;;21.30;32.00;;;;;;5054375;28;20025;-45
2022/01/17 06:39:58;;;;;;;1.88;0.70;;;21.30;32.00;;;;;;5036667;28;20021;-48
2022/01/17 06:42:24;;;;;;;1.80;0.85;;;21.30;32.00;;;;;;5054513;28;20473;-47
2022/01/17 06:44:51;;;;;;;2.10;0.90;;;21.30;32.00;;;;;;5054342;28;20392;-44
2022/01/17 06:47:17;;;;;;;1.60;0.80;;;21.30;32.10;;;;;;5054181;28;20440;-49
2022/01/17 06:49:43;;;;;;;2.25;0.88;;;21.30;32.10;;;;;;5053503;28;20041;-45
2022/01/17 06:52:08;;;;;;;3.10;0.80;;;21.30;32.10;;;;;;5054055;28;20037;-46
2022/01/17 06:54:34;;;;;;;1.75;0.77;;;21.30;32.10;;;;;;5053169;28;20356;-49
2022/01/17 06:57:00;;;;;;;2.10;0.90;;;21.30;32.20;;;;;;5035249;28;20049;-49
2022/01/17 06:59:26;;;;;;;2.05;0.77;;;21.30;32.20;;;;;;5053958;28;20017;-51
2022/01/17 07:01:52;;;;;;;1.80;0.80;;;21.30;32.20;;;;;;5053695;28;20029;-47
2022/01/17 07:04:17;;;;;;;2.17;0.80;;;21.30;32.30;;;;;;5053481;28;20020;-50
2022/01/17 07:06:43;;;;;;;2.80;1.20;;;21.30;32.30;;;;;;5053556;28;20363;-49
2022/01/17 07:09:11;;;;;;;2.50;0.80;;;21.30;32.30;;;;;;5036091;28;20035;-51
2022/01/17 07:11:39;;;;;;;2.72;1.08;;;21.30;32.30;;;;;;5053284;28;20064;-49
2022/01/17 07:14:09;;;;;;;1.95;0.90;;;21.30;32.30;;;;;;5053647;28;20025;-46
2022/01/17 07:16:36;;;;;;;2.03;0.88;;;21.30;32.30;;;;;;5055359;28;20150;-46
2022/01/17 07:19:02;;;;;;;2.13;0.82;;;21.30;32.30;;;;;;5054238;28;20103;-47
2022/01/17 07:21:29;;;;;;;3.70;1.25;;;21.20;32.30;;;;;;5053631;28;20017;-50
2022/01/17 07:23:55;;;;;;;2.75;1.27;;;21.30;32.40;;;;;;5050020;28;20075;-49
2022/01/17 07:26:20;;;;;;;1.98;0.93;;;21.20;32.40;;;;;;5051106;28;20347;-49
2022/01/17 07:28:46;;;;;;;3.03;1.17;;;21.20;32.40;;;;;;5043731;28;20021;-46
2022/01/17 07:31:12;;;;;;;2.55;1.02;;;21.20;32.40;;;;;;5046573;28;20406;-49
2022/01/17 07:33:38;;;;;;;4.80;1.40;;;21.20;32.50;;;;;;5044561;28;20332;-49
2022/01/17 07:36:05;;;;;;;2.83;1.42;;;21.20;32.70;;;;;;5043229;28;20028;-49
2022/01/17 07:38:31;;;;;;;4.20;1.20;;;21.20;32.80;;;;;;5047221;28;20033;-50
2022/01/17 07:40:57;;;;;;;2.85;1.20;;;21.20;32.90;;;;;;5041791;28;20025;-48
2022/01/17 07:43:24;;;;;;;2.90;1.60;;;21.20;33.00;;;;;;5017028;28;20026;-48
2022/01/17 07:46:04;;;;;;;2.95;1.27;;;21.20;33.10;;;;;;5051511;28;20432;-47
2022/01/17 07:48:57;;;;;;;3.22;1.38;;;21.30;33.10;;;;;;5052704;28;20028;-48
2022/01/17 07:51:25;;;;;;;1.90;1.20;;;21.40;33.10;;;;;;5052608;28;20115;-52
2022/01/17 07:53:51;;;;;;;4.25;1.42;;;21.40;33.00;;;;;;5051194;28;20021;-47
2022/01/17 07:56:17;;;;;;;3.88;1.20;;;21.50;33.00;;;;;;5035500;28;20408;-47
2022/01/17 07:58:44;;;;;;;2.40;1.30;;;21.60;33.00;;;;;;5049879;28;20037;-50
2022/01/17 08:01:09;;;;;;;2.75;1.20;;;21.70;33.00;;;;;;5052647;28;20492;-48
2022/01/17 08:03:35;;;;;;;2.67;1.30;;;21.80;32.90;;;;;;5035551;28;20092;-47
2022/01/17 08:06:02;;;;;;;3.13;1.23;;;21.90;32.90;;;;;;5034114;28;20120;-48
2022/01/17 08:08:28;;;;;;;2.92;1.15;;;22.00;32.80;;;;;;5049165;28;20029;-48
2022/01/17 08:10:54;;;;;;;2.25;1.02;;;22.10;32.80;;;;;;5057072;28;20033;-46
2022/01/17 08:13:20;;;;;;;3.65;1.30;;;22.10;32.70;;;;;;5054003;28;20333;-47
2022/01/17 08:15:46;;;;;;;2.83;1.20;;;22.20;32.70;;;;;;5056659;28;20021;-45
2022/01/17 08:18:13;;;;;;;5.07;1.13;;;22.30;32.60;;;;;;5058180;28;20029;-43
2022/01/17 08:20:40;;;;;;;3.60;1.40;;;22.40;32.60;;;;;;5058124;28;20021;-47
2022/01/17 08:23:06;;;;;;;2.97;1.25;;;22.50;32.50;;;;;;5058020;28;20017;-44
2022/01/17 08:25:31;;;;;;;2.97;1.30;;;22.60;32.50;;;;;;5057357;28;20487;-47
2022/01/17 08:27:57;;;;;;;2.80;1.17;;;22.60;32.40;;;;;;5058199;28;20413;-45
2022/01/17 08:30:23;;;;;;;3.75;1.60;;;22.70;32.30;;;;;;5057481;28;20060;-48
2022/01/17 08:32:52;;;;;;;2.72;1.17;;;22.70;32.30;;;;;;5057224;28;20024;-43
2022/01/17 08:35:19;;;;;;;3.08;1.40;;;22.80;32.20;;;;;;5056414;28;20482;-46
2022/01/17 08:37:45;;;;;;;3.42;1.38;;;22.90;32.20;;;;;;5056954;28;20028;-43
2022/01/17 08:40:11;;;;;;;2.97;1.30;;;22.90;32.10;;;;;;5056564;28;20044;-46
2022/01/17 08:42:37;;;;;;;3.47;1.42;;;23.00;32.10;;;;;;5056398;28;20060;-47
2022/01/17 08:45:12;;;;;;;3.30;1.23;;;23.10;32.10;;;;;;5057164;28;20025;-46
2022/01/17 08:47:38;;;;;;;2.38;1.27;;;23.20;32.00;;;;;;5057567;28;20476;-47
2022/01/17 08:50:06;;;;;;;4.00;1.55;;;23.20;31.90;;;;;;5040440;28;20104;-45
2022/01/17 08:52:32;;;;;;;2.20;1.27;;;23.30;31.90;;;;;;5056193;28;20444;-45
2022/01/17 08:54:58;;;;;;;3.53;1.60;;;23.30;31.90;;;;;;5055346;28;20104;-49
2022/01/17 08:57:25;;;;;;;4.38;1.60;;;23.40;31.90;;;;;;5054796;28;20045;-46
2022/01/17 08:59:51;;;;;;;3.65;1.40;;;23.40;31.80;;;;;;5055334;28;20024;-45
2022/01/17 09:02:18;;;;;;;3.45;1.55;;;23.40;31.70;;;;;;5055461;28;20029;-45
2022/01/17 09:04:43;;;;;;;2.95;1.30;;;23.50;31.70;;;;;;5056480;28;20155;-44
2022/01/17 09:07:15;;;;;;;2.60;1.48;;;23.50;31.60;;;;;;5055340;28;20035;-43
2022/01/17 09:09:43;;;;;;;2.38;1.02;;;23.60;31.60;;;;;;5054969;28;20432;-43
2022/01/17 09:12:11;;;;;;;2.20;1.15;;;23.60;31.50;;;;;;5056255;28;20040;-45
2022/01/17 09:14:37;;;;;;;3.88;1.45;;;23.60;31.50;;;;;;5055474;28;20039;-44
2022/01/17 09:17:09;;;;;;;3.15;1.23;;;23.70;32.10;;;;;;5056342;28;20424;-47
2022/01/17 09:19:41;;;;;;;4.03;1.23;;;23.70;31.40;;;;;;5054329;28;20036;-44
2022/01/17 09:22:08;;;;;;;3.30;1.35;;;23.70;31.40;;;;;;5037808;28;20025;-47
2022/01/17 09:24:36;;;;;;;2.65;1.50;;;23.70;31.30;;;;;;5055604;28;20037;-44
2022/01/17 09:27:03;;;;;;;3.20;1.25;;;23.70;31.30;;;;;;5056035;28;20032;-52
2022/01/17 09:29:29;;;;;;;2.50;1.40;;;23.80;31.30;;;;;;5055960;28;20447;-48
2022/01/17 09:31:55;;;;;;;3.45;1.30;;;23.80;31.30;;;;;;5053797;28;20447;-44
2022/01/17 09:34:21;;;;;;;2.78;1.40;;;23.80;31.20;;;;;;5056539;28;20029;-46
2022/01/17 09:36:47;;;;;;;2.63;1.17;;;23.90;31.30;;;;;;5056740;28;20033;-44
2022/01/17 09:39:13;;;;;;;3.13;1.30;;;23.90;31.30;;;;;;5056898;28;20028;-43
2022/01/17 09:41:39;;;;;;;2.88;1.33;;;23.90;31.20;;;;;;5056847;28;20032;-49
2022/01/17 09:44:06;;;;;;;2.92;1.10;;;23.90;31.20;;;;;;5056602;28;20444;-43
2022/01/17 09:46:38;;;;;;;2.97;1.30;;;23.90;31.20;;;;;;5057028;28;20020;-48
2022/01/17 09:49:14;;;;;;;2.95;1.23;;;23.90;31.10;;;;;;5056322;28;20034;-46
2022/01/17 09:54:29;;;;;;;5.07;1.52;;;23.90;31.10;;;;;;5056181;28;20035;-47
2022/01/17 09:56:56;;;;;;;4.63;1.55;;;23.90;31.20;;;;;;5053703;28;20021;-46
2022/01/17 09:59:23;;;;;;;3.47;1.40;;;23.80;31.10;;;;;;5036781;28;20025;-44
2022/01/17 10:01:49;;;;;;;2.85;1.50;;;23.80;31.10;;;;;;5050723;28;20029;-48
2022/01/17 10:04:17;;;;;;;3.28;1.50;;;23.70;31.10;;;;;;5056566;28;20025;-45
2022/01/17 10:06:56;;;;;;;4.45;1.50;;;23.70;31.20;;;;;;5056306;28;20037;-47
2022/01/17 10:09:24;;;;;;;4.22;1.90;;;23.60;31.20;;;;;;5056498;28;20037;-48
2022/01/17 10:12:10;;;;;;;4.22;1.33;;;23.50;31.30;;;;;;5056260;28;20036;-45
2022/01/17 10:14:45;;;;;;;4.13;1.60;;;23.50;31.30;;;;;;5056535;28;20043;-47
2022/01/17 10:17:17;;;;;;;3.03;1.27;;;23.50;31.40;;;;;;5056070;28;20063;-44
2022/01/17 10:19:44;;;;;;;4.10;1.40;;;23.50;31.40;;;;;;5056470;28;20320;-47
2022/01/17 10:22:20;;;;;;;3.25;1.33;;;23.40;31.50;;;;;;5056421;28;20052;-46
2022/01/17 10:35:25;;;;;;;2.63;1.40;;;23.30;32.30;;;;;;5055901;28;20141;-48
2022/01/17 10:37:56;;;;;;;4.82;1.67;;;23.20;31.70;;;;;;5055734;28;20029;-50
2022/01/17 10:40:22;;;;;;;3.97;1.55;;;23.20;31.80;;;;;;5055873;28;20170;-45
2022/01/17 10:42:50;;;;;;;4.95;1.65;;;23.20;31.80;;;;;;5055750;28;20401;-45
2022/01/17 10:45:21;;;;;;;3.58;1.67;;;23.20;31.80;;;;;;5056075;28;20033;-48
2022/01/17 10:47:51;;;;;;;3.15;1.45;;;23.20;32.50;;;;;;5055668;28;20036;-44
2022/01/17 10:50:23;;;;;;;2.95;1.40;;;23.20;31.80;;;;;;5055309;28;20051;-47
2022/01/17 10:52:52;;;;;;;2.92;1.45;;;23.20;31.90;;;;;;5055512;28;20079;-48
2022/01/17 10:55:24;;;;;;;3.35;1.40;;;23.20;31.90;;;;;;5055224;28;20040;-45
2022/01/17 10:57:54;;;;;;;3.58;1.50;;;23.20;31.90;;;;;;5045039;28;20338;-46
2022/01/17 11:00:23;;;;;;;2.92;1.55;;;23.20;31.90;;;;;;5035602;28;20100;-47
2022/01/17 11:02:58;;;;;;;3.72;1.55;;;23.20;31.90;;;;;;5035376;28;20433;-45
2022/01/17 11:05:27;;;;;;;4.13;1.67;;;23.20;31.90;;;;;;5039891;28;20028;-46
2022/01/17 11:07:58;;;;;;;3.13;1.50;;;23.20;32.00;;;;;;5020897;28;20321;-48
2022/01/17 11:10:31;;;;;;;3.60;1.42;;;23.20;32.00;;;;;;5054612;28;20115;-49
2022/01/17 11:13:04;;;;;;;3.60;1.48;;;23.20;32.00;;;;;;5041097;28;20111;-50
2022/01/17 11:15:33;;;;;;;2.90;1.38;;;23.20;32.00;;;;;;5054032;28;20016;-51
2022/01/17 11:18:10;;;;;;;3.78;1.38;;;23.20;32.10;;;;;;5054565;28;20048;-45
2022/01/17 11:20:36;;;;;;;4.22;1.40;;;23.20;32.10;;;;;;5054562;28;20086;-49
2022/01/17 11:23:03;;;;;;;3.25;1.50;;;23.20;32.10;;;;;;5054236;28;20444;-44
2022/01/17 11:25:32;;;;;;;4.40;1.58;;;23.10;32.10;;;;;;5053432;28;20013;-46
2022/01/17 11:28:00;;;;;;;3.67;1.33;;;23.10;32.20;;;;;;5052214;28;20037;-45
2022/01/17 11:30:27;;;;;;;3.83;1.40;;;23.10;32.20;;;;;;5051817;28;20060;-45
2022/01/17 11:32:55;;;;;;;3.22;1.67;;;23.10;32.20;;;;;;5049770;28;20309;-44
2022/01/17 11:35:22;;;;;;;4.53;1.80;;;23.10;32.20;;;;;;5041199;28;20391;-45
2022/01/17 11:37:55;;;;;;;3.53;1.55;;;23.20;32.30;;;;;;5054245;28;20063;-47
2022/01/17 11:40:34;;;;;;;3.90;1.52;;;23.20;32.30;;;;;;5054884;28;20064;-49
2022/01/17 11:43:14;;;;;;;5.28;1.90;;;23.10;32.30;;;;;;5053472;28;20432;-46
2022/01/17 11:45:41;;;;;;;4.70;1.42;;;23.20;32.40;;;;;;5054770;28;20024;-44
2022/01/17 11:48:23;;;;;;;3.80;1.50;;;23.20;32.40;;;;;;5051603;28;20028;-49
2022/01/17 11:50:52;;;;;;;4.13;1.58;;;23.20;32.50;;;;;;5053850;28;20045;-48
2022/01/17 11:53:18;;;;;;;4.07;1.50;;;23.10;32.50;;;;;;5054548;28;20033;-47
2022/01/17 11:55:46;;;;;;;4.35;1.60;;;23.00;32.60;;;;;;5053216;28;20094;-45
2022/01/17 11:58:26;;;;;;;3.08;1.13;;;23.00;32.70;;;;;;5051689;28;20210;-50
2022/01/17 12:01:01;;;;;;;2.45;1.00;;;23.00;32.80;;;;;;5050423;28;20440;-64
2022/01/17 12:03:27;;;;;;;;;;;22.90;32.70;;;;;;5037126;28;20096;-61
2022/01/17 12:05:55;;;;;;;1.85;0.88;;;22.70;32.70;;;;;;5054274;28;19905;-52
2022/01/17 12:08:26;;;;;;;4.22;1.35;;;22.60;32.90;;;;;;5036609;28;20044;-50
2022/01/17 12:11:00;;;;;;;3.67;1.50;;;22.50;33.00;;;;;;5048973;28;20041;-50
2022/01/17 12:13:35;;;;;;;;;;;22.40;33.20;;;;;;5044311;28;20035;-49
2022/01/17 12:16:09;;;;;;;2.30;1.15;;;22.30;33.30;;;;;;5052719;28;19905;-48
2022/01/17 12:18:45;;;;;;;3.13;1.30;;;22.20;33.40;;;;;;5032754;28;20025;-51
2022/01/17 12:21:47;;;;;;;4.20;1.73;;;22.20;33.50;;;;;;5051333;28;20029;-49
2022/01/17 12:24:16;;;;;;;3.75;1.38;;;22.20;33.50;;;;;;5054121;28;20033;-46
2022/01/17 12:26:43;;;;;;;5.13;1.80;;;22.20;33.60;;;;;;5053969;28;20029;-56
2022/01/17 12:29:09;;;;;;;5.15;1.48;;;22.20;33.70;;;;;;5053789;28;20468;-51
2022/01/17 12:31:41;;;;;;;2.88;1.23;;;22.20;33.70;;;;;;5034756;28;20383;-50
2022/01/17 12:34:22;;;;;;;4.15;1.45;;;22.20;33.80;;;;;;5054025;28;20324;-48
2022/01/17 12:36:50;;;;;;;5.07;1.60;;;22.10;33.90;;;;;;5052658;28;20029;-51
2022/01/17 12:39:33;;;;;;;3.53;1.50;;;22.10;34.00;;;;;;5053194;28;20017;-53
2022/01/17 12:42:03;;;;;;;3.60;1.52;;;22.20;34.10;;;;;;5052946;28;20044;-51
2022/01/17 12:44:40;;;;;;;6.05;2.13;;;22.20;34.10;;;;;;5050402;28;20024;-58
2022/01/17 12:47:06;;;;;;;3.30;1.50;;;22.20;34.30;;;;;;5047665;28;20471;-48
2022/01/17 12:49:32;;;;;;;4.53;1.20;;;22.20;34.30;;;;;;5044271;28;20112;-55
2022/01/17 12:51:59;;;;;;;5.28;1.52;;;22.20;34.40;;;;;;5044130;28;20344;-53
2022/01/17 12:54:28;;;;;;;4.93;1.52;;;22.30;34.40;;;;;;5045598;28;20415;-53
2022/01/17 12:56:56;;;;;;;5.88;1.52;;;22.30;34.40;;;;;;5042946;28;20334;-52
2022/01/17 12:59:22;;;;;;;4.93;1.45;;;22.40;34.40;;;;;;5054530;28;20588;-53
2022/01/17 13:01:53;;;;;;;4.47;1.52;;;22.50;34.40;;;;;;5056454;28;20048;-49
2022/01/17 13:04:20;;;;;;;5.30;1.65;;;22.50;34.50;;;;;;5057375;28;20112;-51
2022/01/17 13:06:47;;;;;;;3.05;1.50;;;22.60;34.50;;;;;;5056654;28;20093;-50
2022/01/17 13:09:16;;;;;;;5.38;1.73;;;22.60;34.50;;;;;;5053748;28;20067;-48
2022/01/17 13:11:45;;;;;;;4.57;1.80;;;22.60;34.50;;;;;;5056212;28;20040;-54
2022/01/17 13:14:18;;;;;;;5.50;1.75;;;22.60;34.50;;;;;;5056527;28;20037;-57
2022/01/17 13:16:46;;;;;;;3.45;1.48;;;22.70;34.60;;;;;;5056203;28;20502;-46
2022/01/17 13:19:13;;;;;;;6.50;1.75;;;22.70;34.60;;;;;;5048760;28;20047;-47
2022/01/17 13:21:42;;;;;;;3.03;1.42;;;22.70;34.60;;;;;;5051885;28;20025;-52